ARKANSAS RIVER NAVIGATION REPORT
  LITTLE ROCK DISTRICT - U.S. ARMY CORPS OF ENGINEERS
  GENERATED: 25 JUN 2022 @ 17:36
 
  NOTE: These data are not guaranteed to be valid or correct.
        RELEASES AND FLOWS ARE IN THOUSANDS OF CFS
  _____________________________________________________________________________
 
                  24JUN     24JUN      24JUN           25JUN          25JUN
                  @1200     @2400     AVERAGE      LATEST OBSERVED    PRECIP.
                  HOURS     HOURS      FLOW         DATA AND TIME     (7A-7A)
  _____________________________________________________________________________
 
  LD13 HW-ELEV    391.65    391.67                391.48  @  16:00      0.00
  LD13 TW-ELEV    377.45    377.38                376.19  @  16:00
  LD13 RELEASE     64.5      64.5      63.5        54.4   @  16:00
 
  OZA.L&D HW-ELEV 371.90    371.63                371.38  @  16:00      0.00
  OZA.L&D TW-ELEV 344.51    344.95                343.99  @  16:00
  OZA.L&D RELEASE  62.2      64.6      62.5        62.0   @   7:00
 
  DRD.L&D HW-ELEV 337.77    337.85                337.92  @  16:00      0.00
  DRD.L&D TW-ELEV 289.77    291.37                291.61  @  16:00
  DRD.L&D RELEASE  51.6      65.2      58.5        65.5   @  16:00
 
  LD09 HW-ELEV    285.02    285.25                285.66  @  16:00      0.00
  LD09 TW-ELEV    269.96    270.69                271.28  @  16:00
  LD09 RELEASE     52.2      59.0      55.6        60.2   @  16:00
 
  LD08 HW-ELEV    264.58    264.74                264.68  @  16:00      0.00
  LD08 TW-ELEV    257.09    256.37                257.73  @  16:00
  LD08 RELEASE     60.1      57.2      60.5        65.6   @  16:00
 
  LD07 HW-ELEV    248.44    248.48                248.64  @  16:00      0.00
  LD07 TW-ELEV    232.53    231.95                232.23  @  16:00
  LD07 RELEASE     67.2      60.5      67.0        63.9   @  16:00
 
  LD06 HW-ELEV    230.89    230.66                230.81  @  16:00       .01
  LD06 TW-ELEV    217.84    217.08                217.40  @  16:00
  LD06 RELEASE     72.7      64.7      69.0        68.3   @  16:00
 
  LD05 HW-ELEV    213.68    213.68                214.05  @  16:00      0.00
  LD05 TW-ELEV    198.77    198.02                197.75  @  16:00
  LD05 RELEASE     70.9      63.2      68.2        54.9   @  16:00
 
  LD04 HW-ELEV    195.83    195.64                195.69  @  16:00      0.00
  LD04 TW-ELEV    185.13    184.44                184.04  @  16:00
  LD04 RELEASE     69.4      61.2      67.9        58.0   @  16:00
 
  LD03 HW-ELEV    181.71    181.75                181.35  @  16:00      0.00
  LD03 TW-ELEV    171.32    170.55                169.93  @  16:00
  LD03 RELEASE     71.3      61.5      70.6        60.9   @  16:00
 
  L02 HW-ELEV     163.29    163.36                163.35  @  16:00      0.00
 
  D02 HW-ELEV     162.35    162.23                162.28  @  16:00      0.00
  D02 TW-ELEV     135.98    135.99                134.49  @  16:00
  D02 RELEASE      73.0      72.3      71.6        70.1   @   7:00
 
  L01 TW-ELEV     131.82    131.35                130.73  @  16:00      0.00
 
  MPLD HW-ELEV    129.86    129.61                128.88  @  16:00      0.00	
  MPLD TW-ELEV    129.93    129.40                128.65  @  16:00
 
  WREC DIFF.        1.96      1.74                  1.85
  CLARENDON FLOW   36.22     36.01     36.29       35.73  @  16:00
  HELENA STAGE     15.71     15.14                 14.43  @  16:00
  CAIRO STAGE      21.38     20.24                 20.43  @  16:00
  _____________________________________________________________________________